Time;durP1;ratioP1;P1;durP2;ratioP2;P2;SDS_P1;SDS_P2;PMS_P1;PMS_P2;Temp;Humidity;BMP_temperature;BMP_pressure;BME280_temperature;BME280_humidity;BME280_pressure;Samples;Min_cycle;Max_cycle;Signal;HPM_P1;HPM_P2
2023/07/27 00:00:53;;;;;;;13.00;6.82;;;13.30;99.90;;;;;;5047155;28;20408;-78
2023/07/27 00:03:19;;;;;;;10.83;6.63;;;13.30;99.90;;;;;;5047121;28;20422;-79
2023/07/27 00:05:45;;;;;;;11.87;6.63;;;;;;;;;;5054090;28;20419;-79
2023/07/27 00:08:11;;;;;;;11.23;6.97;;;13.40;99.90;;;;;;5072580;28;20417;-79
2023/07/27 00:10:37;;;;;;;11.73;7.10;;;;;;;;;;5057169;28;20475;-79
2023/07/27 00:13:02;;;;;;;15.18;6.80;;;13.50;99.90;;;;;;5073024;28;20417;-80
2023/07/27 00:15:28;;;;;;;11.60;7.03;;;13.40;99.90;;;;;;5071088;28;20438;-79
2023/07/27 00:17:54;;;;;;;11.50;6.90;;;13.40;99.90;;;;;;5073869;28;20428;-79
2023/07/27 00:20:20;;;;;;;11.00;6.73;;;13.30;99.90;;;;;;5071623;28;21092;-79
2023/07/27 00:22:45;;;;;;;10.50;6.80;;;13.40;99.90;;;;;;5047606;28;20418;-79
2023/07/27 00:25:11;;;;;;;10.73;6.37;;;;;;;;;;5038161;28;20399;-79
2023/07/27 00:27:37;;;;;;;11.38;6.90;;;;;;;;;;5069900;28;20418;-78
2023/07/27 00:30:03;;;;;;;10.85;6.65;;;13.50;99.90;;;;;;5067354;28;20413;-78
2023/07/27 00:32:29;;;;;;;10.52;6.63;;;13.20;99.90;;;;;;5052828;28;20435;-79
2023/07/27 00:34:55;;;;;;;11.20;6.60;;;;;;;;;;5033339;28;20500;-79
2023/07/27 00:37:21;;;;;;;14.05;6.70;;;;;;;;;;5072415;28;20421;-79
2023/07/27 00:39:47;;;;;;;8.98;5.75;;;13.40;99.90;;;;;;5053036;28;20421;-78
2023/07/27 00:42:13;;;;;;;12.57;6.63;;;13.30;99.90;;;;;;5036436;28;20404;-79
2023/07/27 00:44:38;;;;;;;9.57;6.30;;;13.30;99.90;;;;;;5030390;28;20994;-79
2023/07/27 00:47:05;;;;;;;10.50;6.63;;;13.20;99.90;;;;;;5054226;28;20418;-79
2023/07/27 00:49:31;;;;;;;10.13;6.20;;;13.20;99.90;;;;;;5046109;28;20421;-80
2023/07/27 00:51:58;;;;;;;11.00;6.07;;;13.30;99.90;;;;;;5073621;28;20439;-77
2023/07/27 00:54:24;;;;;;;9.10;6.20;;;13.50;99.90;;;;;;5064155;28;20946;-80
2023/07/27 00:56:50;;;;;;;9.35;6.35;;;13.40;99.90;;;;;;5048855;28;20417;-80
2023/07/27 00:59:16;;;;;;;8.52;5.70;;;13.50;99.90;;;;;;5055991;28;20481;-79
2023/07/27 01:01:41;;;;;;;9.25;6.05;;;13.20;99.90;;;;;;5038628;28;20787;-79
2023/07/27 01:04:07;;;;;;;9.32;5.90;;;13.30;99.90;;;;;;5020471;28;20419;-79
2023/07/27 01:06:33;;;;;;;10.95;6.10;;;13.40;99.90;;;;;;5037715;28;20490;-80
2023/07/27 01:09:00;;;;;;;10.30;6.15;;;13.40;99.90;;;;;;5037341;28;20419;-79
2023/07/27 01:12:04;;;;;;;8.95;5.95;;;13.60;99.90;;;;;;5053756;28;20422;-79
2023/07/27 01:15:14;;;;;;;9.40;6.07;;;13.50;99.90;;;;;;4972986;28;20436;-78
2023/07/27 01:17:49;;;;;;;10.43;6.20;;;13.40;99.90;;;;;;5039485;28;20771;-78
2023/07/27 01:20:24;;;;;;;9.90;5.88;;;13.50;99.90;;;;;;5055015;28;20760;-78
2023/07/27 01:22:51;;;;;;;10.98;6.47;;;;;;;;;;5069640;28;20422;-78
2023/07/27 01:25:35;;;;;;;10.13;6.03;;;13.30;99.90;;;;;;5064491;28;20451;-78
2023/07/27 01:28:34;;;;;;;9.10;6.07;;;13.30;99.90;;;;;;5071545;28;20425;-78
2023/07/27 01:31:09;;;;;;;12.55;5.93;;;13.40;99.90;;;;;;5068308;28;20913;-80
2023/07/27 01:33:41;;;;;;;9.48;5.80;;;13.30;99.90;;;;;;5069955;28;20414;-80
2023/07/27 01:36:23;;;;;;;9.10;5.32;;;13.30;99.90;;;;;;5055254;28;20474;-80
2023/07/27 01:38:51;;;;;;;7.80;5.40;;;13.50;99.90;;;;;;5063824;28;20954;-80
2023/07/27 01:41:18;;;;;;;8.43;5.50;;;13.50;99.90;;;;;;5072481;28;20414;-80
2023/07/27 01:43:45;;;;;;;10.27;5.72;;;13.30;99.90;;;;;;5062610;28;20418;-80
2023/07/27 01:46:12;;;;;;;7.90;5.30;;;13.50;99.90;;;;;;5065563;28;20411;-79
2023/07/27 01:48:41;;;;;;;8.45;5.47;;;13.50;99.90;;;;;;5037069;28;20725;-80
2023/07/27 01:51:09;;;;;;;9.23;5.87;;;13.50;99.90;;;;;;5055533;28;20506;-79
2023/07/27 01:53:37;;;;;;;9.23;5.47;;;13.50;99.90;;;;;;5043181;28;20775;-79
2023/07/27 01:56:04;;;;;;;9.48;6.05;;;13.50;99.90;;;;;;5075934;28;20427;-78
2023/07/27 01:58:32;;;;;;;8.43;5.95;;;13.40;99.90;;;;;;5060357;28;20449;-78
2023/07/27 02:00:59;;;;;;;8.75;5.80;;;;;;;;;;5051372;28;20917;-79
2023/07/27 02:03:25;;;;;;;8.68;5.95;;;13.10;99.90;;;;;;5046194;28;20419;-79
2023/07/27 02:05:51;;;;;;;9.45;5.95;;;13.40;99.90;;;;;;5040836;28;20400;-79
2023/07/27 02:08:17;;;;;;;9.43;5.90;;;;;;;;;;5035648;28;20751;-79
2023/07/27 02:10:47;;;;;;;10.25;6.03;;;13.50;99.90;;;;;;5070537;28;20411;-80
2023/07/27 02:13:27;;;;;;;9.43;5.90;;;13.50;99.90;;;;;;5054229;28;20874;-79
2023/07/27 02:16:04;;;;;;;8.38;5.85;;;13.60;99.90;;;;;;5044843;28;20423;-79
2023/07/27 02:18:31;;;;;;;7.85;5.45;;;13.30;99.90;;;;;;5040571;28;20469;-80
2023/07/27 02:20:58;;;;;;;9.43;6.18;;;13.40;99.90;;;;;;5037065;28;20407;-79
2023/07/27 02:23:24;;;;;;;9.57;5.85;;;13.30;99.90;;;;;;5059669;28;20975;-78
2023/07/27 02:25:50;;;;;;;9.43;5.80;;;13.50;99.90;;;;;;5067010;28;20417;-78
2023/07/27 02:28:16;;;;;;;8.20;5.63;;;;;;;;;;5047487;28;20422;-78
2023/07/27 02:30:42;;;;;;;10.70;6.03;;;;;;;;;;5050353;28;20505;-79
2023/07/27 02:33:08;;;;;;;10.98;5.80;;;13.50;99.90;;;;;;5074567;28;20413;-79
2023/07/27 02:35:33;;;;;;;9.75;5.75;;;13.50;99.90;;;;;;5067211;28;20429;-79
2023/07/27 02:37:59;;;;;;;10.67;6.20;;;13.60;99.90;;;;;;5073345;28;20414;-79
2023/07/27 02:40:25;;;;;;;9.03;6.20;;;13.50;99.90;;;;;;5044672;28;20418;-79
2023/07/27 02:42:51;;;;;;;9.85;6.10;;;;;;;;;;5055481;28;20922;-79
2023/07/27 02:45:16;;;;;;;10.95;6.07;;;13.40;99.90;;;;;;5046667;28;20416;-79
2023/07/27 02:47:42;;;;;;;10.70;6.47;;;13.70;99.90;;;;;;5038708;28;20496;-79
2023/07/27 02:50:08;;;;;;;10.82;6.50;;;13.50;99.90;;;;;;5049131;28;20498;-79
2023/07/27 02:52:34;;;;;;;13.32;6.85;;;13.60;99.90;;;;;;5059481;28;20754;-79
2023/07/27 02:54:59;;;;;;;13.00;6.55;;;13.50;99.90;;;;;;5055896;28;20429;-79
2023/07/27 02:57:26;;;;;;;13.50;6.20;;;13.50;99.90;;;;;;5051999;28;20943;-79
2023/07/27 02:59:52;;;;;;;10.70;6.50;;;13.60;99.90;;;;;;5050125;28;20825;-79
2023/07/27 03:02:18;;;;;;;10.97;6.40;;;13.70;99.90;;;;;;5070790;28;20414;-78
2023/07/27 03:04:44;;;;;;;9.93;6.20;;;;;;;;;;5054412;28;20413;-79
2023/07/27 03:07:10;;;;;;;10.95;6.28;;;13.50;99.90;;;;;;5069888;28;20475;-79
2023/07/27 03:09:35;;;;;;;10.63;6.80;;;13.40;99.90;;;;;;5041433;28;20432;-79
2023/07/27 03:12:01;;;;;;;10.67;6.43;;;;;;;;;;5049387;28;20426;-79
2023/07/27 03:14:27;;;;;;;9.93;6.33;;;13.70;99.90;;;;;;5057621;28;20996;-79
2023/07/27 03:16:53;;;;;;;10.70;6.30;;;13.50;99.90;;;;;;5049456;28;20419;-79
2023/07/27 03:19:18;;;;;;;11.70;6.20;;;13.60;99.90;;;;;;5067371;28;20751;-79
2023/07/27 03:21:45;;;;;;;12.65;6.05;;;;;;;;;;5062097;28;20419;-78
2023/07/27 03:24:16;;;;;;;10.30;6.60;;;13.80;99.90;;;;;;5025269;28;20921;-79
2023/07/27 03:26:42;;;;;;;10.35;6.43;;;13.60;99.90;;;;;;5058406;28;20490;-79
2023/07/27 03:29:09;;;;;;;10.73;6.88;;;;;;;;;;5055974;28;20413;-79
2023/07/27 03:31:34;;;;;;;9.35;6.30;;;13.60;99.90;;;;;;5071042;28;20449;-79
2023/07/27 03:34:00;;;;;;;10.33;7.03;;;13.50;99.90;;;;;;5046859;28;21069;-79
2023/07/27 03:36:26;;;;;;;10.00;6.60;;;;;;;;;;5028967;28;20440;-78
2023/07/27 03:38:52;;;;;;;11.40;7.07;;;13.50;99.90;;;;;;5058962;28;20429;-79
2023/07/27 03:41:18;;;;;;;9.77;6.60;;;;;;;;;;5075632;28;20394;-79
2023/07/27 03:43:44;;;;;;;11.60;7.20;;;;;;;;;;5042276;28;20499;-78
2023/07/27 03:46:10;;;;;;;12.30;7.80;;;;;;;;;;5074188;28;20399;-78
2023/07/27 03:48:36;;;;;;;10.82;7.65;;;;;;;;;;5055914;28;20403;-78
2023/07/27 03:51:03;;;;;;;12.25;7.97;;;;;;;;;;5091392;28;20804;-79
2023/07/27 03:53:29;;;;;;;11.75;7.85;;;;;;;;;;5093846;28;20842;-79
2023/07/27 03:55:55;;;;;;;14.02;8.73;;;;;;;;;;5059139;28;20398;-79
2023/07/27 03:58:22;;;;;;;13.20;8.68;;;;;;;;;;5075660;28;20458;-80
2023/07/27 04:00:48;;;;;;;13.95;8.38;;;;;;;;;;5094188;28;20477;-79
2023/07/27 04:03:14;;;;;;;12.55;8.80;;;;;;;;;;5094059;28;20900;-78
2023/07/27 04:05:40;;;;;;;13.43;8.93;;;;;;;;;;5093563;28;20732;-79
2023/07/27 04:08:06;;;;;;;16.53;9.70;;;;;;;;;;5093058;28;20417;-79
2023/07/27 04:10:33;;;;;;;14.52;9.60;;;;;;;;;;5076155;28;20417;-80
2023/07/27 04:12:59;;;;;;;15.25;10.02;;;;;;;;;;5056442;28;20403;-80
2023/07/27 04:15:25;;;;;;;16.75;10.73;;;;;;;;;;5068206;28;20421;-80
2023/07/27 04:17:51;;;;;;;17.00;10.43;;;;;;;;;;5088587;28;20416;-79
2023/07/27 04:20:17;;;;;;;18.17;11.15;;;;;;;;;;5087763;28;20422;-80
2023/07/27 04:22:43;;;;;;;18.20;10.88;;;;;;;;;;5058939;28;20414;-80
2023/07/27 04:25:09;;;;;;;18.07;11.27;;;;;;;;;;5065930;28;20451;-79
2023/07/27 04:27:36;;;;;;;18.50;11.82;;;;;;;;;;5074596;28;20905;-80
2023/07/27 04:30:02;;;;;;;20.45;11.75;;;;;;;;;;5057846;28;20424;-79
2023/07/27 04:32:28;;;;;;;21.67;12.47;;;;;;;;;;5074509;28;20874;-79
2023/07/27 04:34:54;;;;;;;20.38;12.50;;;;;;;;;;5062102;28;20431;-79
2023/07/27 04:37:23;;;;;;;21.75;12.75;;;;;;;;;;5077112;28;20488;-79
2023/07/27 04:39:49;;;;;;;20.90;12.48;;;13.30;99.90;;;;;;5076234;28;20432;-79
2023/07/27 04:42:14;;;;;;;21.25;13.05;;;13.30;99.90;;;;;;5049902;28;20509;-79
2023/07/27 04:44:40;;;;;;;20.83;12.85;;;13.60;99.90;;;;;;5072901;28;20418;-79
2023/07/27 04:47:06;;;;;;;21.52;12.68;;;;;;;;;;5016013;28;20514;-79
2023/07/27 04:49:32;;;;;;;21.45;13.52;;;;;;;;;;5072253;28;20436;-79
2023/07/27 04:51:58;;;;;;;20.88;12.77;;;;;;;;;;5049502;28;20972;-79
2023/07/27 04:54:24;;;;;;;20.13;13.30;;;;;;;;;;5047867;28;20430;-79
2023/07/27 04:56:50;;;;;;;21.27;12.88;;;;;;;;;;5058436;28;20908;-79
2023/07/27 04:59:16;;;;;;;20.42;12.98;;;;;;;;;;5070619;28;20502;-79
2023/07/27 05:01:42;;;;;;;20.83;13.60;;;;;;;;;;5081334;28;20413;-79
2023/07/27 05:04:09;;;;;;;23.23;13.50;;;;;;;;;;5084895;28;20439;-79
2023/07/27 05:06:35;;;;;;;24.05;12.93;;;;;;;;;;5052544;28;20414;-78
2023/07/27 05:09:01;;;;;;;21.80;12.98;;;;;;;;;;5068057;28;20434;-79
2023/07/27 05:11:29;;;;;;;21.23;13.45;;;;;;;;;;5077633;28;20932;-78
2023/07/27 05:13:55;;;;;;;22.48;12.75;;;;;;;;;;5087022;28;20413;-78
2023/07/27 05:16:21;;;;;;;21.23;12.80;;;;;;;;;;5063238;28;20941;-78
2023/07/27 05:18:47;;;;;;;21.80;13.23;;;;;;;;;;5057648;28;20509;-77
2023/07/27 05:21:13;;;;;;;19.90;12.73;;;;;;;;;;5086700;28;20410;-77
2023/07/27 05:23:39;;;;;;;22.63;12.90;;;;;;;;;;5050025;28;20429;-77
2023/07/27 05:26:06;;;;;;;20.27;12.68;;;;;;;;;;5073711;28;20758;-78
2023/07/27 05:28:31;;;;;;;20.33;11.90;;;13.50;99.90;;;;;;5048914;28;20911;-78
2023/07/27 05:30:57;;;;;;;19.90;11.93;;;;;;;;;;5084595;28;20433;-77
2023/07/27 05:33:24;;;;;;;20.05;12.27;;;;;;;;;;5092256;28;20416;-77
2023/07/27 05:35:50;;;;;;;20.83;12.40;;;;;;;;;;5088543;28;20407;-77
2023/07/27 05:38:17;;;;;;;18.85;12.07;;;;;;;;;;5092212;28;20910;-78
2023/07/27 05:40:44;;;;;;;18.73;11.70;;;;;;;;;;5058422;28;20401;-78
2023/07/27 05:43:10;;;;;;;20.13;12.10;;;;;;;;;;5056574;28;20457;-77
2023/07/27 05:45:37;;;;;;;20.63;12.10;;;;;;;;;;5068370;28;20487;-77
2023/07/27 05:48:04;;;;;;;19.42;11.85;;;13.70;99.90;;;;;;5072754;28;20466;-78
2023/07/27 05:50:30;;;;;;;20.70;11.98;;;;;;;;;;5058095;28;20398;-78
2023/07/27 05:52:56;;;;;;;18.42;11.27;;;13.70;99.90;;;;;;5074411;28;20398;-78
2023/07/27 05:55:22;;;;;;;18.77;11.88;;;13.60;99.90;;;;;;5050348;28;20409;-78
2023/07/27 05:57:48;;;;;;;19.95;12.38;;;;;;;;;;5070772;28;20471;-77
2023/07/27 06:00:14;;;;;;;18.17;11.48;;;13.60;99.90;;;;;;5084810;28;20425;-77
2023/07/27 06:02:40;;;;;;;18.63;11.40;;;13.80;99.90;;;;;;5038267;28;20398;-78
2023/07/27 06:05:06;;;;;;;18.23;11.23;;;;;;;;;;5053490;28;20406;-79
2023/07/27 06:07:33;;;;;;;17.65;11.38;;;;;;;;;;5070204;28;20420;-77
2023/07/27 06:09:58;;;;;;;18.42;11.07;;;13.90;99.90;;;;;;5042941;28;20552;-78
2023/07/27 06:12:24;;;;;;;14.90;10.18;;;14.00;99.90;;;;;;5021694;28;20523;-78
2023/07/27 06:14:53;;;;;;;18.17;10.82;;;;;;;;;;5063647;28;20448;-78
2023/07/27 06:17:19;;;;;;;15.55;9.85;;;13.90;99.90;;;;;;5065605;28;20471;-78
2023/07/27 06:19:45;;;;;;;14.80;9.60;;;14.30;99.90;;;;;;5075103;28;20422;-79
2023/07/27 06:22:11;;;;;;;14.95;9.90;;;;;;;;;;5036672;28;20781;-78
2023/07/27 06:24:37;;;;;;;13.02;9.32;;;;;;;;;;5051852;28;20404;-78
2023/07/27 06:27:03;;;;;;;13.90;9.80;;;;;;;;;;5033665;28;20504;-78
2023/07/27 06:29:30;;;;;;;16.05;10.07;;;14.10;99.90;;;;;;5039512;28;20423;-78
2023/07/27 06:31:56;;;;;;;14.23;9.13;;;14.30;99.90;;;;;;5032685;28;20453;-78
2023/07/27 06:34:21;;;;;;;13.10;9.20;;;14.20;99.90;;;;;;5042878;28;20433;-78
2023/07/27 06:36:47;;;;;;;12.53;8.67;;;14.20;99.90;;;;;;5002048;28;20820;-78
2023/07/27 06:39:14;;;;;;;12.95;9.35;;;;;;;;;;5003118;28;20427;-75
2023/07/27 06:41:39;;;;;;;15.05;9.25;;;14.30;99.90;;;;;;5050132;28;20426;-78
2023/07/27 06:44:05;;;;;;;12.77;9.43;;;14.20;99.90;;;;;;5051343;28;20424;-78
2023/07/27 06:46:31;;;;;;;13.23;9.65;;;14.30;99.90;;;;;;5044034;28;20423;-78
2023/07/27 06:48:57;;;;;;;15.95;10.00;;;14.20;99.90;;;;;;5054056;28;20420;-77
2023/07/27 06:51:24;;;;;;;16.45;10.93;;;14.10;99.90;;;;;;5027656;28;20440;-79
2023/07/27 06:53:50;;;;;;;17.07;11.17;;;14.60;99.90;;;;;;5037622;28;20427;-78
2023/07/27 06:56:17;;;;;;;18.02;10.55;;;14.40;99.90;;;;;;5040183;28;20963;-77
2023/07/27 06:58:43;;;;;;;17.45;10.55;;;14.40;99.90;;;;;;5050065;28;20533;-77
2023/07/27 07:01:10;;;;;;;16.33;9.82;;;14.50;99.90;;;;;;5050112;28;20566;-78
2023/07/27 07:03:36;;;;;;;14.57;9.23;;;14.60;99.90;;;;;;5014368;28;20431;-77
2023/07/27 07:06:02;;;;;;;15.30;9.60;;;14.70;99.90;;;;;;5035373;28;20863;-78
2023/07/27 07:08:27;;;;;;;13.47;8.70;;;14.80;99.90;;;;;;5044781;28;20413;-78
2023/07/27 07:10:53;;;;;;;12.80;8.83;;;14.80;99.90;;;;;;5045919;28;20420;-78
2023/07/27 07:13:19;;;;;;;14.38;8.40;;;14.60;99.90;;;;;;5036236;28;20416;-78
2023/07/27 07:15:45;;;;;;;13.38;9.13;;;14.90;99.90;;;;;;5050423;28;20426;-78
2023/07/27 07:18:11;;;;;;;15.02;8.43;;;15.00;99.90;;;;;;5050986;28;20451;-78
2023/07/27 07:20:36;;;;;;;12.93;8.68;;;14.90;99.90;;;;;;5047257;28;20423;-78
2023/07/27 07:23:02;;;;;;;13.18;8.73;;;15.00;99.90;;;;;;5042735;28;20432;-78
2023/07/27 07:25:28;;;;;;;12.93;9.02;;;14.80;99.90;;;;;;5050356;28;20898;-79
2023/07/27 07:27:53;;;;;;;12.80;9.03;;;14.90;99.90;;;;;;5060132;28;20477;-79
2023/07/27 07:30:19;;;;;;;13.00;8.70;;;15.10;99.90;;;;;;5073327;28;20793;-79
2023/07/27 07:32:45;;;;;;;12.95;8.68;;;15.10;99.90;;;;;;5068859;28;20497;-78
2023/07/27 07:35:11;;;;;;;11.52;8.57;;;14.80;99.90;;;;;;5066519;28;20477;-81
2023/07/27 07:37:36;;;;;;;11.85;8.77;;;15.10;99.90;;;;;;5046505;28;20426;-78
2023/07/27 07:40:02;;;;;;;11.40;8.70;;;15.10;99.90;;;;;;5062369;28;20426;-78
2023/07/27 07:42:28;;;;;;;12.70;8.63;;;;;;;;;;5054778;28;20436;-78
2023/07/27 07:44:54;;;;;;;12.30;8.80;;;15.30;99.90;;;;;;5039510;28;20421;-78
2023/07/27 07:47:20;;;;;;;10.60;7.75;;;15.30;99.90;;;;;;5043869;28;20421;-78
2023/07/27 07:49:45;;;;;;;11.17;8.27;;;15.20;99.90;;;;;;5036512;28;20416;-78
2023/07/27 07:52:13;;;;;;;10.87;8.03;;;15.50;99.90;;;;;;5080576;28;20444;-78
2023/07/27 07:54:39;;;;;;;9.35;7.25;;;15.40;99.90;;;;;;5034298;28;20426;-77
2023/07/27 07:57:04;;;;;;;9.68;7.32;;;15.20;99.90;;;;;;5056458;28;20429;-78
2023/07/27 07:59:31;;;;;;;10.07;8.07;;;15.40;99.90;;;;;;5073076;28;20414;-78
2023/07/27 08:01:56;;;;;;;10.00;7.80;;;15.20;99.90;;;;;;5052556;28;20952;-79
2023/07/27 08:04:22;;;;;;;10.95;7.90;;;15.20;99.90;;;;;;5043444;28;20449;-79
2023/07/27 08:06:48;;;;;;;9.15;7.50;;;15.40;99.90;;;;;;5082937;28;20906;-79
2023/07/27 08:09:14;;;;;;;9.93;7.77;;;15.40;99.90;;;;;;5073756;28;20419;-79
2023/07/27 08:11:41;;;;;;;9.10;7.10;;;15.30;99.90;;;;;;5044238;28;20433;-79
2023/07/27 08:14:08;;;;;;;9.25;7.25;;;15.30;99.90;;;;;;5093138;28;20398;-79
2023/07/27 08:16:34;;;;;;;8.48;6.85;;;15.20;99.90;;;;;;5091569;28;20405;-79
2023/07/27 08:19:00;;;;;;;9.07;7.20;;;15.30;99.90;;;;;;5060147;28;20429;-79
2023/07/27 08:21:28;;;;;;;9.82;7.10;;;;;;;;;;5059418;28;20921;-79
2023/07/27 08:23:54;;;;;;;8.98;7.15;;;15.30;99.90;;;;;;5028403;28;20416;-80
2023/07/27 08:26:20;;;;;;;9.68;7.47;;;15.30;99.90;;;;;;5068069;28;20481;-80
2023/07/27 08:28:46;;;;;;;8.82;7.32;;;15.20;99.90;;;;;;5056383;28;20426;-79
2023/07/27 08:31:11;;;;;;;11.15;7.72;;;15.30;99.90;;;;;;5019112;28;20886;-80
2023/07/27 08:33:37;;;;;;;10.27;7.97;;;15.30;99.90;;;;;;5035040;28;20434;-80
2023/07/27 08:36:03;;;;;;;9.68;7.63;;;15.40;99.90;;;;;;5038382;28;20529;-80
2023/07/27 08:38:30;;;;;;;10.40;8.10;;;15.20;99.90;;;;;;5013822;28;20654;-80
2023/07/27 08:41:02;;;;;;;9.60;7.90;;;15.40;99.90;;;;;;5041684;28;20424;-80
2023/07/27 08:43:28;;;;;;;11.25;8.35;;;15.50;99.90;;;;;;5039544;28;20821;-80
2023/07/27 08:45:55;;;;;;;8.98;7.07;;;15.30;99.90;;;;;;5048982;28;20475;-80
2023/07/27 08:48:23;;;;;;;8.48;7.10;;;15.30;99.90;;;;;;5047812;28;20425;-80
2023/07/27 08:50:49;;;;;;;8.45;6.75;;;15.10;99.90;;;;;;5036682;28;20762;-81
2023/07/27 08:53:16;;;;;;;11.47;7.90;;;15.20;99.90;;;;;;5047150;28;20411;-80
2023/07/27 08:55:42;;;;;;;8.20;6.65;;;15.40;99.90;;;;;;5044868;28;20416;-79
2023/07/27 08:58:09;;;;;;;8.10;6.30;;;15.50;99.90;;;;;;5033375;28;20418;-79
2023/07/27 09:00:35;;;;;;;8.02;6.47;;;15.40;99.90;;;;;;5018500;28;20762;-79
2023/07/27 09:03:01;;;;;;;8.38;6.30;;;15.50;99.90;;;;;;5026622;28;20417;-80
2023/07/27 09:05:40;;;;;;;9.35;6.32;;;15.80;99.90;;;;;;5029091;28;20420;-79
2023/07/27 09:08:14;;;;;;;7.38;5.80;;;15.80;99.90;;;;;;5038611;28;20412;-79
2023/07/27 09:10:41;;;;;;;7.60;5.70;;;15.80;99.90;;;;;;5015132;28;20423;-79
2023/07/27 09:13:07;;;;;;;7.30;5.90;;;15.80;99.90;;;;;;5045797;28;20450;-79
2023/07/27 09:15:34;;;;;;;6.68;5.47;;;15.70;99.90;;;;;;5049694;28;20426;-79
2023/07/27 09:18:08;;;;;;;7.95;5.72;;;15.60;99.90;;;;;;5015563;28;20747;-79
2023/07/27 09:20:35;;;;;;;6.03;5.28;;;15.90;99.90;;;;;;5028464;28;21689;-80
2023/07/27 09:23:01;;;;;;;6.10;5.20;;;15.50;99.90;;;;;;5030459;28;20456;-80
2023/07/27 09:25:27;;;;;;;6.90;5.80;;;15.70;99.90;;;;;;5031263;28;20511;-80
2023/07/27 09:27:54;;;;;;;7.22;5.70;;;15.50;99.90;;;;;;5046788;28;20939;-80
2023/07/27 09:30:20;;;;;;;6.25;5.57;;;15.50;99.90;;;;;;5028773;28;20411;-78
2023/07/27 09:32:47;;;;;;;5.90;5.00;;;15.70;99.90;;;;;;5036937;28;20513;-79
2023/07/27 09:35:17;;;;;;;7.13;5.32;;;15.90;99.90;;;;;;5050433;28;20976;-79
2023/07/27 09:37:48;;;;;;;5.93;5.07;;;15.90;99.90;;;;;;5064880;28;20485;-81
2023/07/27 09:40:21;;;;;;;5.93;4.93;;;15.80;99.90;;;;;;5052869;28;20423;-80
2023/07/27 09:42:47;;;;;;;6.32;5.05;;;15.70;99.90;;;;;;5048914;28;20771;-80
2023/07/27 09:45:13;;;;;;;6.73;5.20;;;14.00;99.90;;;;;;5034615;28;20414;-80
2023/07/27 09:47:40;;;;;;;7.00;5.45;;;15.90;99.90;;;;;;5042078;28;20427;-80
2023/07/27 09:50:10;;;;;;;5.88;4.85;;;16.00;99.90;;;;;;5053588;28;20460;-80
2023/07/27 09:52:37;;;;;;;6.30;5.00;;;15.90;99.90;;;;;;5065390;28;20474;-80
2023/07/27 09:55:03;;;;;;;5.35;4.65;;;16.30;99.90;;;;;;5062029;28;20503;-80
2023/07/27 09:57:29;;;;;;;6.25;4.80;;;15.90;99.90;;;;;;5072382;28;20410;-79
2023/07/27 09:59:55;;;;;;;5.20;4.40;;;16.10;99.90;;;;;;5036047;28;20780;-79
2023/07/27 10:02:22;;;;;;;6.32;5.13;;;16.30;99.90;;;;;;5059832;28;20416;-80
2023/07/27 10:04:51;;;;;;;7.60;5.20;;;16.20;99.90;;;;;;5066670;28;20837;-79
2023/07/27 10:07:19;;;;;;;5.85;5.10;;;16.10;99.90;;;;;;5063086;28;20429;-79
2023/07/27 10:09:46;;;;;;;7.60;5.50;;;15.90;99.90;;;;;;5061094;28;20427;-79
2023/07/27 10:12:25;;;;;;;6.03;5.20;;;16.30;99.90;;;;;;5051627;28;20410;-79
2023/07/27 10:15:10;;;;;;;7.07;5.95;;;16.30;99.90;;;;;;5068751;28;20454;-79
2023/07/27 10:17:50;;;;;;;7.60;5.30;;;16.10;99.90;;;;;;5055089;28;20774;-80
2023/07/27 10:20:27;;;;;;;6.90;5.50;;;16.50;99.90;;;;;;5078200;28;20437;-79
2023/07/27 10:23:18;;;;;;;6.18;5.50;;;16.50;99.90;;;;;;5062148;28;20419;-79
2023/07/27 10:25:56;;;;;;;5.95;5.10;;;16.60;99.90;;;;;;5065796;28;20405;-80
2023/07/27 10:28:43;;;;;;;6.50;5.67;;;16.60;99.90;;;;;;5046963;28;20532;-79
2023/07/27 10:31:23;;;;;;;7.80;5.95;;;16.60;99.90;;;;;;5065961;28;20418;-80
2023/07/27 10:34:13;;;;;;;6.25;5.40;;;16.50;99.90;;;;;;5063563;28;20430;-79
2023/07/27 10:37:13;;;;;;;6.20;5.60;;;16.60;99.90;;;;;;5040887;28;20417;-80
2023/07/27 10:39:54;;;;;;;6.00;5.40;;;16.70;99.90;;;;;;5004702;28;20429;-79
2023/07/27 10:42:22;;;;;;;7.07;5.78;;;16.80;99.90;;;;;;5057416;28;20413;-80
2023/07/27 10:44:50;;;;;;;7.88;6.13;;;16.60;99.90;;;;;;5063535;28;20490;-80
2023/07/27 10:47:27;;;;;;;6.55;5.70;;;16.90;99.90;;;;;;5075275;28;20415;-79
2023/07/27 10:49:55;;;;;;;6.93;6.22;;;17.00;99.90;;;;;;5062401;28;20402;-80
2023/07/27 10:52:24;;;;;;;7.50;6.30;;;17.00;99.90;;;;;;5070446;28;20420;-80
2023/07/27 10:54:52;;;;;;;7.45;6.30;;;17.10;99.90;;;;;;5050006;28;20414;-80
2023/07/27 10:57:19;;;;;;;6.85;6.10;;;16.90;99.90;;;;;;5070286;28;20415;-79
2023/07/27 10:59:47;;;;;;;7.13;6.40;;;17.00;99.90;;;;;;5066814;28;20424;-79
2023/07/27 11:02:21;;;;;;;10.65;6.82;;;17.00;99.90;;;;;;5065287;28;20774;-80
2023/07/27 11:04:51;;;;;;;8.25;7.43;;;16.90;99.90;;;;;;5069054;28;20416;-80
2023/07/27 11:07:30;;;;;;;8.80;7.70;;;16.90;99.90;;;;;;5068932;28;20423;-80
2023/07/27 11:09:57;;;;;;;12.50;7.27;;;16.90;99.90;;;;;;5068802;28;20489;-79
2023/07/27 11:12:23;;;;;;;9.02;8.07;;;17.10;99.90;;;;;;5041829;28;20418;-81
2023/07/27 11:14:51;;;;;;;12.15;8.45;;;17.10;99.90;;;;;;5062137;28;20789;-80
2023/07/27 11:17:18;;;;;;;9.25;8.15;;;16.90;99.90;;;;;;5055948;28;20980;-80
2023/07/27 11:19:47;;;;;;;9.55;8.52;;;17.10;99.90;;;;;;5077770;28;20511;-79
2023/07/27 11:22:13;;;;;;;10.57;9.00;;;17.30;99.90;;;;;;5058736;28;20453;-79
2023/07/27 11:24:39;;;;;;;9.65;8.65;;;17.10;99.90;;;;;;5054590;28;20830;-79
2023/07/27 11:27:07;;;;;;;9.90;8.77;;;17.20;99.90;;;;;;5048997;28;20755;-80
2023/07/27 11:29:33;;;;;;;10.30;9.07;;;17.20;99.90;;;;;;5069301;28;20497;-79
2023/07/27 11:32:00;;;;;;;11.77;9.30;;;17.40;99.90;;;;;;5062436;28;20441;-79
2023/07/27 11:34:29;;;;;;;11.88;9.23;;;17.40;99.90;;;;;;5071666;28;20428;-80
2023/07/27 11:36:57;;;;;;;11.80;9.40;;;17.50;99.90;;;;;;5073518;28;20432;-80
2023/07/27 11:39:24;;;;;;;10.68;9.55;;;17.70;99.90;;;;;;5073373;28;20428;-80
2023/07/27 11:41:50;;;;;;;10.50;9.40;;;17.70;99.90;;;;;;5062692;28;20414;-80
2023/07/27 11:44:20;;;;;;;12.18;9.35;;;17.60;99.90;;;;;;5060546;28;20419;-80
2023/07/27 11:46:52;;;;;;;10.90;9.05;;;17.80;99.90;;;;;;5052664;28;20431;-80
2023/07/27 11:49:21;;;;;;;11.38;9.40;;;19.50;99.90;;;;;;5049385;28;20447;-80
2023/07/27 11:51:47;;;;;;;11.70;8.90;;;17.80;99.90;;;;;;5069891;28;20762;-79
2023/07/27 11:54:27;;;;;;;9.27;8.00;;;17.70;99.90;;;;;;5055941;28;20922;-81
2023/07/27 11:56:54;;;;;;;9.02;7.93;;;17.80;99.90;;;;;;5077542;28;20444;-81
2023/07/27 11:59:21;;;;;;;10.15;8.40;;;17.90;99.90;;;;;;5075006;28;20457;-81
2023/07/27 12:01:51;;;;;;;10.60;8.40;;;17.90;99.90;;;;;;5071953;28;20409;-81
2023/07/27 12:04:20;;;;;;;9.73;7.93;;;18.00;99.90;;;;;;5052426;28;20506;-81
2023/07/27 12:06:45;;;;;;;11.40;8.73;;;18.20;99.90;;;;;;5056672;28;20739;-82
2023/07/27 12:09:12;;;;;;;9.85;8.13;;;16.40;99.90;;;;;;5049025;28;20476;-81
2023/07/27 12:11:38;;;;;;;9.85;8.15;;;18.70;99.90;;;;;;5055977;28;20438;-82
2023/07/27 12:14:08;;;;;;;9.63;7.45;;;18.50;99.90;;;;;;5064737;28;20426;-81
2023/07/27 12:16:41;;;;;;;8.60;7.37;;;18.80;99.90;;;;;;5065303;28;20425;-82
2023/07/27 12:19:07;;;;;;;7.40;6.30;;;18.60;99.90;;;;;;5065240;28;20429;-83
2023/07/27 12:21:38;;;;;;;7.68;6.68;;;18.60;99.90;;;;;;5067838;28;20828;-81
2023/07/27 12:24:09;;;;;;;7.90;6.38;;;18.60;99.90;;;;;;5044376;28;20509;-81
2023/07/27 12:26:35;;;;;;;6.88;5.80;;;18.90;99.90;;;;;;5056590;28;20410;-81
2023/07/27 12:29:01;;;;;;;5.05;4.10;;;19.10;99.90;;;;;;5070884;28;20425;-81
2023/07/27 12:31:27;;;;;;;5.00;4.32;;;16.60;99.90;;;;;;5053170;28;20414;-80
2023/07/27 12:33:52;;;;;;;4.85;4.35;;;19.00;99.90;;;;;;5050277;28;20454;-80
2023/07/27 12:36:18;;;;;;;5.60;4.28;;;18.80;99.90;;;;;;5070981;28;20806;-80
2023/07/27 12:38:46;;;;;;;6.60;3.97;;;18.70;99.90;;;;;;5089024;28;20954;-81
2023/07/27 12:41:11;;;;;;;4.30;3.60;;;18.60;99.90;;;;;;5039967;28;20465;-81
2023/07/27 12:43:37;;;;;;;8.45;4.10;;;18.90;99.90;;;;;;5049879;28;20781;-81
2023/07/27 12:46:04;;;;;;;4.10;3.25;;;18.60;99.90;;;;;;5071211;28;20424;-81
2023/07/27 12:48:30;;;;;;;4.00;3.17;;;19.90;99.90;;;;;;5054438;28;20433;-81
2023/07/27 12:50:56;;;;;;;4.18;3.50;;;18.60;99.90;;;;;;5043086;28;20895;-81
2023/07/27 12:53:21;;;;;;;4.50;3.60;;;19.20;99.90;;;;;;5069599;28;20852;-81
2023/07/27 12:55:47;;;;;;;4.17;2.80;;;19.00;99.90;;;;;;5069219;28;20449;-81
2023/07/27 12:58:13;;;;;;;4.00;3.10;;;19.30;99.90;;;;;;5063288;28;20428;-81
2023/07/27 13:00:39;;;;;;;3.67;3.00;;;19.30;99.90;;;;;;5063546;28;20494;-81
2023/07/27 13:03:04;;;;;;;3.78;3.05;;;19.50;99.90;;;;;;5046534;28;20421;-81
2023/07/27 13:05:30;;;;;;;4.30;3.20;;;19.50;99.90;;;;;;5069149;28;20909;-81